createdAt,value
2022-08-12T00:00:35.183Z,147500.28
2022-08-12T00:03:21.370Z,147480.72
2022-08-12T00:06:08.854Z,147488.03
2022-08-12T00:08:56.515Z,147470.91
2022-08-12T00:11:44.296Z,147478.25
2022-08-12T00:14:30.658Z,147451.38
2022-08-12T00:17:17.313Z,147440.41
2022-08-12T00:20:03.366Z,147428.19
2022-08-12T00:22:58.703Z,147348.84
2022-08-12T00:26:22.224Z,147424.50
2022-08-12T00:29:12.017Z,147378.13
2022-08-12T00:32:00.279Z,147369.56
2022-08-12T00:34:49.330Z,147361.03
2022-08-12T00:37:36.641Z,147324.41
2022-08-12T00:40:24.704Z,147346.38
2022-08-12T00:42:53.324Z,147297.56
2022-08-12T00:45:21.234Z,147296.31
2022-08-12T00:47:52.196Z,147297.56
2022-08-12T00:50:22.310Z,147282.88
2022-08-12T00:52:52.258Z,147282.88
2022-08-12T00:55:19.984Z,147170.59
2022-08-12T00:57:50.477Z,147253.63
2022-08-12T01:00:25.038Z,147236.47
2022-08-12T01:02:57.419Z,147234.06
2022-08-12T01:05:44.410Z,147231.59
2022-08-12T01:08:50.653Z,147252.41
2022-08-12T01:11:32.669Z,147170.59
2022-08-12T01:14:01.732Z,147199.84
2022-08-12T01:16:29.760Z,147173.00
2022-08-12T01:18:58.759Z,147143.75
2022-08-12T01:21:55.142Z,147125.44
2022-08-12T01:24:56.711Z,147158.38
2022-08-12T01:27:25.571Z,147138.84
2022-08-12T01:29:54.422Z,147116.88
2022-08-12T01:32:23.818Z,147135.19
2022-08-12T01:35:07.730Z,147126.66
2022-08-12T01:37:58.317Z,147126.66
2022-08-12T01:40:38.311Z,147122.97
2022-08-12T01:43:09.597Z,147070.53
2022-08-12T01:45:47.112Z,147060.78
2022-08-12T01:48:17.071Z,147054.69
2022-08-12T01:51:05.275Z,147053.44
2022-08-12T01:53:53.431Z,147042.47
2022-08-12T01:56:25.269Z,147032.72
2022-08-12T01:59:15.748Z,147051.03
2022-08-12T02:01:45.597Z,146996.13
2022-08-12T02:04:40.984Z,147036.41
2022-08-12T02:08:04.898Z,147021.72
2022-08-12T02:11:10.762Z,147011.97
2022-08-12T02:14:00.824Z,147004.69
2022-08-12T02:16:54.066Z,146988.81
2022-08-12T02:19:42.274Z,146994.94
2022-08-12T02:22:38.847Z,146997.34
2022-08-12T02:25:29.345Z,146911.91
2022-08-12T02:27:56.759Z,146987.59
2022-08-12T02:30:41.710Z,147014.44
2022-08-12T02:33:11.150Z,147029.06
2022-08-12T02:35:39.680Z,146985.09
2022-08-12T02:38:10.942Z,146963.16
2022-08-12T02:40:42.809Z,146891.22
2022-08-12T02:43:21.723Z,146955.84
2022-08-12T02:46:03.745Z,146926.59
2022-08-12T02:48:37.745Z,146924.13
2022-08-12T02:51:09.285Z,146921.72
2022-08-12T02:53:37.976Z,146900.97
2022-08-12T02:56:06.554Z,146892.41
2022-08-12T02:58:35.505Z,146875.34
2022-08-12T03:01:05.438Z,146887.53
2022-08-12T03:03:34.386Z,146909.50
2022-08-12T03:06:08.211Z,146892.41
2022-08-12T03:08:40.748Z,146870.47
2022-08-12T03:11:15.698Z,146880.22
2022-08-12T03:13:51.268Z,146860.72
2022-08-12T03:16:20.624Z,146848.56
2022-08-12T03:18:49.190Z,146848.56
2022-08-12T03:21:52.278Z,146829.00
2022-08-12T03:24:08.893Z,146835.13
2022-08-12T03:26:37.347Z,146853.44
2022-08-12T03:29:06.835Z,146842.44
2022-08-12T03:31:34.197Z,146838.75
2022-08-12T03:34:04.741Z,146841.22
2022-08-12T03:36:35.037Z,146826.59
2022-08-12T03:39:17.738Z,146724.19
2022-08-12T03:41:59.364Z,146807.06
2022-08-12T03:44:53.471Z,146802.19
2022-08-12T03:47:58.751Z,146787.56
2022-08-12T03:50:44.967Z,146799.78
2022-08-12T03:53:30.750Z,146803.44
2022-08-12T03:56:16.349Z,146782.69
2022-08-12T03:59:02.529Z,146772.94
2022-08-12T04:01:29.994Z,146791.22
2022-08-12T04:03:58.012Z,146807.06
2022-08-12T04:06:34.917Z,146799.78
2022-08-12T04:09:16.641Z,146759.53
2022-08-12T04:12:04.505Z,146748.59
2022-08-12T04:14:32.948Z,146726.63
2022-08-12T04:17:01.293Z,146760.75
2022-08-12T04:19:29.823Z,146753.47
2022-08-12T04:22:02.194Z,146775.41
2022-08-12T04:24:35.202Z,146755.88
2022-08-12T04:27:08.976Z,146731.50
2022-08-12T04:30:16.817Z,146744.91
2022-08-12T04:32:25.901Z,146755.88
2022-08-12T04:34:53.841Z,146751.00
2022-08-12T04:37:20.993Z,146733.94
2022-08-12T04:39:48.775Z,146760.75
2022-08-12T04:42:16.192Z,146759.53
2022-08-12T04:44:44.325Z,146762.00
2022-08-12T04:47:16.504Z,146777.81
2022-08-12T04:49:46.578Z,146791.22
2022-08-12T04:52:14.415Z,146787.56
2022-08-12T04:54:43.746Z,146783.91
2022-08-12T04:57:11.125Z,146704.66
2022-08-12T04:59:48.191Z,146787.56
2022-08-12T05:02:21.302Z,146772.94
2022-08-12T05:04:51.723Z,146804.66
2022-08-12T05:07:20.164Z,146810.72
2022-08-12T05:09:58.839Z,146780.28
2022-08-12T05:12:33.968Z,146875.34
2022-08-12T05:15:01.278Z,146833.88
2022-08-12T05:17:28.718Z,146875.34
2022-08-12T05:19:57.500Z,146911.91
2022-08-12T05:22:26.692Z,146955.84
2022-08-12T05:24:53.926Z,146971.66
2022-08-12T05:27:22.402Z,146997.34
2022-08-12T05:30:06.161Z,147007.09
2022-08-12T05:32:37.085Z,147009.56
2022-08-12T05:35:06.791Z,147030.28
2022-08-12T05:37:35.350Z,147021.72
2022-08-12T05:40:09.949Z,147074.22
2022-08-12T05:42:38.373Z,147007.09
2022-08-12T05:45:06.848Z,147086.38
2022-08-12T05:47:52.269Z,147114.47
2022-08-12T05:50:21.204Z,147129.09
2022-08-12T05:52:48.449Z,147163.25
2022-08-12T05:55:15.700Z,147221.84
2022-08-12T05:57:48.391Z,147253.63
2022-08-12T06:00:16.578Z,147260.97
2022-08-12T06:02:46.393Z,147297.56
2022-08-12T06:05:13.903Z,147319.50
2022-08-12T06:08:02.242Z,147334.19
2022-08-12T06:10:32.042Z,147348.84
2022-08-12T06:13:02.404Z,147368.34
2022-08-12T06:15:29.918Z,147394.03
2022-08-12T06:18:13.645Z,147423.31
2022-08-12T06:20:46.447Z,147451.38
2022-08-12T06:23:15.291Z,147495.41
2022-08-12T06:25:43.540Z,147500.28
2022-08-12T06:28:17.416Z,147532.06
2022-08-12T06:30:53.075Z,147587.03
2022-08-12T06:33:57.616Z,147651.75
2022-08-12T06:36:21.708Z,147681.06
2022-08-12T06:38:49.302Z,147747.13
2022-08-12T06:41:35.699Z,147673.78
2022-08-12T06:44:06.400Z,147816.78
2022-08-12T06:46:36.770Z,147852.25
2022-08-12T06:49:04.559Z,147906.00
2022-08-12T06:51:32.237Z,147928.03
2022-08-12T06:54:01.009Z,147977.00
2022-08-12T06:56:59.659Z,148003.91
2022-08-12T06:59:15.897Z,148043.03
2022-08-12T07:01:51.164Z,148045.50
2022-08-12T07:07:09.244Z,148150.72
2022-08-12T07:10:03.965Z,148197.22
2022-08-12T07:12:24.614Z,148238.81
2022-08-12T07:14:59.311Z,148275.53
2022-08-12T07:17:31.529Z,148301.19
2022-08-12T07:20:03.917Z,148335.50
2022-08-12T07:22:33.066Z,148351.41
2022-08-12T07:25:18.993Z,148366.16
2022-08-12T07:27:46.623Z,148390.63
2022-08-12T07:30:14.380Z,148426.13
2022-08-12T07:32:41.513Z,148459.16
2022-08-12T07:35:08.824Z,148500.78
2022-08-12T07:37:41.480Z,148582.91
2022-08-12T07:40:11.593Z,148630.63
2022-08-12T07:42:41.635Z,148699.22
2022-08-12T07:45:09.426Z,148731.13
2022-08-12T07:47:37.877Z,148771.56
2022-08-12T07:50:09.513Z,148812.00
2022-08-12T07:52:39.131Z,148841.41
2022-08-12T07:55:06.900Z,148890.44
2022-08-12T07:57:35.581Z,148910.09
2022-08-12T08:00:05.137Z,148906.41
2022-08-12T08:02:35.759Z,148928.47
2022-08-12T08:05:03.977Z,149003.22
2022-08-12T08:07:31.352Z,149033.88
2022-08-12T08:10:10.796Z,149040.00
2022-08-12T08:12:53.459Z,149085.41
2022-08-12T08:15:51.213Z,149029.00
2022-08-12T08:18:25.861Z,149123.41
2022-08-12T08:20:56.256Z,149122.19
2022-08-12T08:23:43.773Z,149184.75
2022-08-12T08:26:15.487Z,149206.84
2022-08-12T08:28:43.336Z,149241.16
2022-08-12T08:31:10.535Z,149254.72
2022-08-12T08:34:05.533Z,149270.63
2022-08-12T08:36:24.807Z,149297.63
2022-08-12T08:38:57.742Z,149239.94
2022-08-12T08:42:15.211Z,149339.34
2022-08-12T08:44:38.164Z,149316.03
2022-08-12T08:47:07.274Z,149263.31
2022-08-12T08:49:37.266Z,149324.63
2022-08-12T08:52:10.584Z,149286.59
2022-08-12T08:54:38.021Z,149347.91
2022-08-12T08:57:08.195Z,149377.41
2022-08-12T08:59:35.831Z,149373.72
2022-08-12T09:02:03.306Z,149408.03
2022-08-12T09:05:13.031Z,149427.75
2022-08-12T09:07:51.944Z,149471.91
2022-08-12T09:13:23.182Z,149432.66
2022-08-12T09:15:55.858Z,149431.41
2022-08-12T09:18:26.495Z,149432.66
2022-08-12T09:20:58.149Z,149486.63
2022-08-12T09:23:57.036Z,149453.50
2022-08-12T09:26:18.935Z,149496.44
2022-08-12T09:32:07.820Z,149540.63
2022-08-12T09:34:29.834Z,149527.13
2022-08-12T09:37:02.314Z,149544.31
2022-08-12T09:40:06.209Z,149535.72
2022-08-12T09:42:43.610Z,149548.00
2022-08-12T09:46:07.014Z,149570.06
2022-08-12T09:48:20.023Z,149578.72
2022-08-12T09:50:51.972Z,149605.72
2022-08-12T09:53:36.159Z,149570.06
2022-08-12T09:56:59.309Z,149492.78
2022-08-12T09:59:00.241Z,149583.63
2022-08-12T10:01:35.042Z,149614.31
2022-08-12T10:04:19.438Z,149645.03
2022-08-12T10:06:55.231Z,149604.50
2022-08-12T10:09:39.128Z,149663.44
2022-08-12T10:12:33.263Z,149669.56
2022-08-12T10:15:04.190Z,149717.44
2022-08-12T10:17:33.372Z,149729.72
2022-08-12T10:20:01.746Z,149675.69
2022-08-12T10:22:39.495Z,149702.69
2022-08-12T10:26:34.179Z,149705.19
2022-08-12T10:28:38.447Z,149668.34
2022-08-12T10:31:06.423Z,149734.69
2022-08-12T10:33:55.559Z,149664.66
2022-08-12T10:36:36.195Z,149713.78
2022-08-12T10:40:06.169Z,149715.00
2022-08-12T10:42:15.692Z,149771.50
2022-08-12T10:44:46.804Z,149769.09
2022-08-12T10:48:01.116Z,149782.59
2022-08-12T10:50:33.750Z,149727.28
2022-08-12T10:52:56.920Z,149674.47
2022-08-12T10:55:26.136Z,149791.16
2022-08-12T10:58:14.660Z,149765.38
2022-08-12T11:00:45.250Z,149791.16
2022-08-12T11:04:31.293Z,149834.16
2022-08-12T11:07:06.265Z,149862.41
2022-08-12T11:08:58.862Z,149771.50
2022-08-12T11:12:34.547Z,149855.03
2022-08-12T11:14:50.260Z,149861.19
2022-08-12T11:17:42.899Z,149804.66
2022-08-12T11:20:06.245Z,149850.09
2022-08-12T11:22:35.099Z,149893.19
2022-08-12T11:25:02.219Z,149928.75
2022-08-12T11:27:37.825Z,149968.09
2022-08-12T11:30:30.443Z,149995.13
2022-08-12T11:32:52.709Z,149960.69
2022-08-12T11:35:20.949Z,149945.97
2022-08-12T11:37:57.894Z,149909.13
2022-08-12T11:40:26.071Z,149953.38
2022-08-12T11:43:17.171Z,149990.22
2022-08-12T11:45:46.936Z,150057.81
2022-08-12T11:48:15.556Z,150033.19
2022-08-12T11:50:43.919Z,150068.91
2022-08-12T11:53:58.161Z,150044.28
2022-08-12T11:55:58.178Z,150024.59
2022-08-12T11:59:38.230Z,149991.44
2022-08-12T12:02:01.208Z,150065.19
2022-08-12T12:03:59.658Z,150089.75
2022-08-12T12:06:27.786Z,150086.06
2022-08-12T12:08:55.270Z,150076.25
2022-08-12T12:11:22.894Z,150114.38
2022-08-12T12:14:07.393Z,150105.75
2022-08-12T12:16:39.621Z,150169.66
2022-08-12T12:19:08.805Z,150174.56
2022-08-12T12:21:47.627Z,150116.78
2022-08-12T12:24:21.866Z,150156.16
2022-08-12T12:26:59.627Z,150186.88
2022-08-12T12:30:18.783Z,150159.78
2022-08-12T12:32:17.323Z,150174.56
2022-08-12T12:35:14.657Z,150157.38
2022-08-12T12:38:05.458Z,150174.56
2022-08-12T12:40:22.362Z,150178.22
2022-08-12T12:43:01.687Z,150086.06
2022-08-12T12:45:34.159Z,150177.00
2022-08-12T12:48:07.963Z,150142.63
2022-08-12T12:50:42.299Z,150170.88
2022-08-12T12:54:05.294Z,150173.31
2022-08-12T12:56:06.790Z,150222.53
2022-08-12T12:58:34.009Z,150170.88
2022-08-12T13:01:04.956Z,150132.81
2022-08-12T13:03:54.107Z,150250.81
2022-08-12T13:06:25.502Z,150229.94
2022-08-12T13:09:02.564Z,150240.97
2022-08-12T13:11:41.172Z,150243.47
2022-08-12T13:14:28.996Z,150236.06
2022-08-12T13:17:02.314Z,150263.13
2022-08-12T13:19:37.931Z,150213.94
2022-08-12T13:22:18.175Z,150217.63
2022-08-12T13:24:54.731Z,150189.38
2022-08-12T13:27:35.282Z,150275.38
2022-08-12T13:30:12.960Z,150275.38
2022-08-12T13:32:41.837Z,150272.94
2022-08-12T13:35:20.341Z,150233.59
2022-08-12T13:37:57.978Z,150265.53
2022-08-12T13:40:28.875Z,150282.78
2022-08-12T13:43:01.768Z,150302.44
2022-08-12T13:45:31.004Z,150280.34
2022-08-12T13:48:00.287Z,150233.59
2022-08-12T13:50:33.609Z,150270.47
2022-08-12T13:53:23.271Z,150265.53
2022-08-12T13:55:59.289Z,150272.94
2022-08-12T13:58:30.352Z,150248.38
2022-08-12T14:00:58.663Z,150309.81
2022-08-12T14:03:28.064Z,150349.19
2022-08-12T14:06:04.606Z,150356.59
2022-08-12T14:08:34.227Z,150332.00
2022-08-12T14:11:02.178Z,150313.53
2022-08-12T14:14:03.541Z,150314.75
2022-08-12T14:16:37.606Z,150334.44
2022-08-12T14:19:21.784Z,150407.00
2022-08-12T14:22:00.741Z,150382.41
2022-08-12T14:24:40.616Z,150395.94
2022-08-12T14:27:13.259Z,150313.53
2022-08-12T14:30:04.995Z,150300.00
2022-08-12T14:32:39.979Z,150263.13
2022-08-12T14:35:09.417Z,150228.69
2022-08-12T14:37:56.235Z,150222.53
2022-08-12T14:40:29.478Z,150287.69
2022-08-12T14:42:58.625Z,150339.34
2022-08-12T14:45:44.506Z,150332.00
2022-08-12T14:48:18.591Z,150311.03
2022-08-12T14:51:09.236Z,150307.34
2022-08-12T14:59:57.517Z,150377.50
2022-08-12T15:02:20.319Z,150354.16
2022-08-12T15:04:52.253Z,150356.59
2022-08-12T15:07:33.765Z,150282.78
2022-08-12T15:10:06.591Z,150356.59
2022-08-12T15:12:34.617Z,150400.88
2022-08-12T15:15:02.641Z,150427.94
2022-08-12T15:17:37.970Z,150432.84
2022-08-12T15:20:32.793Z,150523.84
2022-08-12T15:23:05.727Z,150542.31
2022-08-12T15:25:47.754Z,150646.91
2022-08-12T15:28:22.502Z,150634.59
2022-08-12T15:30:54.542Z,150733.06
2022-08-12T15:33:24.226Z,150705.97
2022-08-12T15:35:53.047Z,150757.69
2022-08-12T15:38:24.778Z,150698.59
2022-08-12T15:40:53.400Z,150693.66
2022-08-12T15:43:51.433Z,150715.81
2022-08-12T15:46:15.414Z,150675.22
2022-08-12T15:48:46.929Z,150717.03
2022-08-12T15:51:59.747Z,150784.78
2022-08-12T15:54:35.212Z,150893.09
2022-08-12T15:57:05.659Z,150902.94
2022-08-12T15:59:51.476Z,150984.19
2022-08-12T16:02:26.677Z,151049.47
2022-08-12T16:04:54.508Z,151003.88
2022-08-12T16:07:29.881Z,151082.72
2022-08-12T16:10:05.917Z,151170.19
2022-08-12T16:12:54.269Z,151265.09
2022-08-12T16:15:26.201Z,151261.34
2022-08-12T16:18:14.458Z,151372.25
2022-08-12T16:20:46.762Z,151446.22
2022-08-12T16:23:26.975Z,151481.97
2022-08-12T16:26:14.258Z,151644.72
2022-08-12T16:28:44.098Z,151692.75
2022-08-12T16:31:23.341Z,151797.59
2022-08-12T16:33:59.089Z,151711.25
2022-08-12T16:36:30.995Z,151930.81
2022-08-12T16:39:01.811Z,151999.94
2022-08-12T16:41:37.915Z,152083.78
2022-08-12T16:44:08.686Z,151980.13
2022-08-12T16:46:37.537Z,152054.16
2022-08-12T16:49:13.100Z,152182.50
2022-08-12T16:51:46.711Z,152067.75
2022-08-12T16:54:26.649Z,152054.16
2022-08-12T16:57:05.542Z,152009.78
2022-08-12T16:59:53.468Z,152118.38
2022-08-12T17:02:31.766Z,152249.22
2022-08-12T17:05:05.008Z,152203.50
2022-08-12T17:07:43.519Z,152380.03
2022-08-12T17:10:13.409Z,152434.34
2022-08-12T17:12:45.309Z,152370.19
2022-08-12T17:15:41.325Z,152247.94
2022-08-12T17:18:39.543Z,151998.66
2022-08-12T17:20:49.447Z,151925.91
2022-08-12T17:23:18.131Z,152164.00
2022-08-12T17:25:52.912Z,152036.94
2022-08-12T17:28:21.301Z,151960.41
2022-08-12T17:30:51.290Z,151943.13
2022-08-12T17:33:27.873Z,151843.22
2022-08-12T17:36:02.863Z,151846.94
2022-08-12T17:38:30.593Z,151738.38
2022-08-12T17:40:58.663Z,151390.78
2022-08-12T17:43:54.797Z,150885.75
2022-08-12T17:46:23.829Z,150484.53
2022-08-12T17:48:59.487Z,150375.03
2022-08-12T17:51:31.514Z,150248.38
2022-08-12T17:54:05.785Z,150154.88
2022-08-12T17:56:41.243Z,150098.38
2022-08-12T17:59:12.620Z,150006.16
2022-08-12T18:01:45.372Z,149973.00
2022-08-12T18:04:21.495Z,149941.06
2022-08-12T18:06:51.884Z,149894.38
2022-08-12T18:09:20.745Z,149867.31
2022-08-12T18:12:08.303Z,149864.84
2022-08-12T18:14:38.083Z,149830.47
2022-08-12T18:17:09.901Z,149841.50
2022-08-12T18:20:03.831Z,149801.00
2022-08-12T18:22:31.810Z,149772.72
2022-08-12T18:25:03.641Z,149756.78
2022-08-12T18:27:46.689Z,149724.81
2022-08-12T18:30:20.813Z,149697.78
2022-08-12T18:33:04.998Z,149680.59
2022-08-12T18:35:47.690Z,149675.69
2022-08-12T18:38:22.693Z,149653.63
2022-08-12T18:41:21.679Z,149626.63
2022-08-12T18:44:02.991Z,149595.91
2022-08-12T18:46:47.289Z,149599.59
2022-08-12T18:49:20.049Z,149525.91
2022-08-12T18:52:02.324Z,149533.25
2022-08-12T18:54:35.118Z,149516.09
2022-08-12T18:57:19.737Z,149502.59
2022-08-12T19:00:02.265Z,149467.00
2022-08-12T19:02:36.552Z,149442.47
2022-08-12T19:05:10.588Z,149427.75
2022-08-12T19:08:01.186Z,149403.13
2022-08-12T19:10:32.231Z,149381.03
2022-08-12T19:13:24.205Z,149255.91
2022-08-12T19:15:54.507Z,149327.09
2022-08-12T19:18:29.308Z,149241.16
2022-08-12T19:20:58.789Z,149223.97
2022-08-12T19:23:35.240Z,149251.03
2022-08-12T19:26:05.072Z,149226.44
2022-08-12T19:28:34.430Z,149177.38
2022-08-12T19:31:57.241Z,149108.72
2022-08-12T19:36:06.551Z,149059.66
2022-08-12T19:38:04.088Z,149032.69
2022-08-12T19:40:31.833Z,148991.00
2022-08-12T19:43:18.842Z,148986.09
2022-08-12T19:45:50.495Z,148950.53
2022-08-12T19:48:20.086Z,148927.25
2022-08-12T19:50:52.533Z,148896.56
2022-08-12T19:53:22.843Z,148886.75
2022-08-12T19:55:55.317Z,148856.09
2022-08-12T19:58:24.219Z,148836.50
2022-08-12T20:00:53.292Z,148853.69
2022-08-12T20:03:40.422Z,148827.91
2022-08-12T20:06:15.277Z,148803.44
2022-08-12T20:08:48.952Z,148745.81
2022-08-12T20:12:14.441Z,148760.50
2022-08-12T20:14:17.992Z,148728.72
2022-08-12T20:16:52.637Z,148713.94
2022-08-12T20:19:52.114Z,148716.41
2022-08-12T20:22:24.736Z,148669.84
2022-08-12T20:25:02.174Z,148622.06
2022-08-12T20:28:02.974Z,148589.00
2022-08-12T20:30:52.322Z,148570.63
2022-08-12T20:33:16.728Z,148562.06
2022-08-12T20:36:14.432Z,148562.06
2022-08-12T20:38:38.190Z,148508.16
2022-08-12T20:41:16.212Z,148505.69
2022-08-12T20:43:50.639Z,148491.00
2022-08-12T20:46:19.930Z,148481.22
2022-08-12T20:48:54.325Z,148446.91
2022-08-12T20:51:21.837Z,148459.16
2022-08-12T20:53:53.940Z,148442.03
2022-08-12T20:56:36.823Z,148417.53
2022-08-12T20:59:19.926Z,148389.41
2022-08-12T21:01:48.517Z,148407.75
2022-08-12T21:04:37.484Z,148388.16
2022-08-12T21:07:09.254Z,148375.94
2022-08-12T21:09:41.525Z,148366.16
2022-08-12T21:12:28.178Z,148350.22
2022-08-12T21:15:23.634Z,148319.56
2022-08-12T21:18:11.449Z,148246.19
2022-08-12T21:20:54.617Z,148291.41
2022-08-12T21:23:22.695Z,148236.34
2022-08-12T21:25:56.597Z,148242.50
2022-08-12T21:28:30.862Z,148258.38
2022-08-12T21:32:35.917Z,148260.84
2022-08-12T21:34:07.036Z,148182.53
2022-08-12T21:36:39.520Z,148221.66
2022-08-12T21:39:21.282Z,148213.09
2022-08-12T21:41:51.382Z,148177.66
2022-08-12T21:45:46.020Z,148204.53
2022-08-12T21:47:21.070Z,148189.84
2022-08-12T21:50:04.272Z,148142.13
2022-08-12T21:52:40.932Z,148167.81
2022-08-12T21:55:18.403Z,148162.94
2022-08-12T21:57:53.241Z,148123.75
2022-08-12T22:00:33.229Z,148138.44
2022-08-12T22:04:04.262Z,148159.31
2022-08-12T22:06:25.929Z,148136.00
2022-08-12T22:09:03.477Z,148106.63
2022-08-12T22:11:41.443Z,148091.97
2022-08-12T22:14:21.656Z,148111.53
2022-08-12T22:16:51.242Z,148087.06
2022-08-12T22:19:19.583Z,148076.03
2022-08-12T22:21:48.348Z,148046.69
2022-08-12T22:24:25.889Z,148044.28
2022-08-12T22:26:55.790Z,148038.13
2022-08-12T22:29:42.519Z,148017.38
2022-08-12T22:32:11.561Z,148025.94
2022-08-12T22:34:39.437Z,147979.41
2022-08-12T22:37:11.552Z,147994.13
2022-08-12T22:39:49.092Z,147972.13
2022-08-12T22:42:35.810Z,147963.53
2022-08-12T22:45:23.345Z,147961.09
2022-08-12T22:47:54.913Z,147954.97
2022-08-12T22:50:27.523Z,147932.91
2022-08-12T22:53:14.884Z,147932.91
2022-08-12T22:55:59.960Z,147930.50
2022-08-12T22:58:33.655Z,147906.00
2022-08-12T23:01:02.444Z,147893.81
2022-08-12T23:03:48.116Z,147866.91
2022-08-12T23:06:21.169Z,147864.44
2022-08-12T23:08:48.462Z,147835.13
2022-08-12T23:11:17.814Z,147747.13
2022-08-12T23:13:54.927Z,147815.59
2022-08-12T23:16:31.554Z,147787.47
2022-08-12T23:19:10.638Z,147794.78
2022-08-12T23:22:04.513Z,147809.44
2022-08-12T23:24:35.630Z,147842.47
2022-08-12T23:27:22.376Z,147733.69
2022-08-12T23:30:17.593Z,147804.56
2022-08-12T23:32:37.139Z,147814.31
2022-08-12T23:35:06.786Z,147792.38
2022-08-12T23:37:34.336Z,147778.91
2022-08-12T23:40:17.898Z,147777.66
2022-08-12T23:42:46.760Z,147788.69
2022-08-12T23:45:20.680Z,147769.16
2022-08-12T23:48:00.800Z,147711.63
2022-08-12T23:50:33.852Z,147763.00
2022-08-12T23:53:22.716Z,147749.56
2022-08-12T23:55:50.635Z,147730.00
2022-08-12T23:58:26.440Z,147705.53
